Nearby METAR Reports

 

EGEO - Oban, United Kingdom
Distance from station: SSW 18mi, 30km
Updated: 22/11/2017 15:50
NOT Current
Few Clouds
Few Clouds
 Wind from E
Wind: E 2 mph , 4 km/h
Temperature: 5°C
Dew Point: 2°C
Humidity: 81%
Barometer: 982 hPa
Clouds: Few Clouds
Visibility: 6 miles , 10 km
Cloud details: Few Clouds 1036 m
2017/11/22 15:50 EGEO 221550Z 09002KT 9999 FEW034 05/02 Q0982
EGPU - Tiree, United Kingdom
Distance from station: WSW 64mi, 103km
Updated: 22/11/2017 19:20
Clear
Clear
 Wind from W
Wind: W 3 mph , 6 km/h
Temperature: 4°C
Dew Point: -2°C
Humidity: 65%
Barometer: 979 hPa
Clouds: Clear
Visibility: 6 miles , 10 km
2017/11/22 19:20 EGPU 221920Z AUTO 28003KT 9999 NCD 04/M02 Q0979
EGPF - Glasgow, United Kingdom
Distance from station: SSE 66mi, 107km
Updated: 22/11/2017 19:20
Light rain, Mostly cloudy
Light rain, Mostly cloudy
 Wind from varies
Wind: varies 1 mph , 2 km/h
Temperature: 5°C
Dew Point: 4°C
Humidity: 93%
Barometer: 980 hPa
Summary: Light rain
Clouds: Mostly cloudy
Visibility: 6 miles , 10 km
Cloud details: Partly cloudy 975 m
Mostly cloudy 1433 m
2017/11/22 19:20 EGPF 221920Z AUTO VRB01KT 9999 -RA SCT032 BKN047 05/04 Q0980
 
EGPE - Inverness, United Kingdom
Distance from station: NE 71mi, 114km
Updated: 22/11/2017 19:20
Few Clouds
Few Clouds
 Wind from calm
Wind: Calm
Temperature: 3°C
Dew Point: 2°C
Humidity: 93%
Barometer: 981 hPa
Clouds: Few Clouds
Visibility: 6 miles , 10 km
Cloud details: Few Clouds 610 m
2017/11/22 19:20 EGPE 221920Z 00000KT 9999 FEW020 03/02 Q0981
EGPI - Islay/Port Ellen, United Kingdom
Distance from station: SSW 81mi, 131km
Updated: 22/11/2017 19:20
Light rain, Partly cloudy
Light rain, Partly cloudy
 Wind from ESE
Wind: ESE 5 mph , 7 km/h
Temperature: 4°C
Wind Chill: 2°C
Dew Point: 3°C
Humidity: 93%
Barometer: 980 hPa
Summary: Light rain
Clouds: Partly cloudy
Visibility: 6 miles , 10 km
Cloud details: Few Clouds 914 m
Partly cloudy 1158 m
2017/11/22 19:20 EGPI 221920Z AUTO 11004KT 9999 -RA FEW030/// SCT038/// 04/03 Q0980
EGPN - Dundee/Riverside, United Kingdom
Distance from station: E 86mi, 138km
Updated: 22/11/2017 19:20
Light rain, Mostly cloudy
Light rain, Mostly cloudy
 Wind from calm
Wind: Calm
Temperature: 6°C
Dew Point: 5°C
Humidity: 93%
Barometer: 980 hPa
Summary: Light rain
Clouds: Mostly cloudy
Visibility: 6 miles , 10 km
Cloud details: Few Clouds 183 m
Mostly cloudy 671 m
2017/11/22 19:20 EGPN 221920Z 00000KT 9999 -RA FEW006 BKN022 06/05 Q0980 RERA
 
EGPK - Prestwick, United Kingdom
Distance from station: SSE 88mi, 141km
Updated: 22/11/2017 19:20
Mostly cloudy
Mostly cloudy
 Wind from calm
Wind: Calm
Temperature: 5°C
Dew Point: 4°C
Humidity: 93%
Barometer: 980 hPa
Clouds: Mostly cloudy
Visibility: 6 miles , 10 km
Cloud details: Mostly cloudy 701 m
2017/11/22 19:20 EGPK 221920Z 00000KT 9999 BKN023 05/04 Q0980
EGPH - Edinburgh, United Kingdom
Distance from station: SE 89mi, 143km
Updated: 22/11/2017 19:20
Rain drizzle, Overcast
Rain drizzle, Overcast
 Wind from NE
Wind: NE 5 mph , 7 km/h
Temperature: 5°C
Wind Chill: 3°C
Dew Point: 5°C
Humidity: 100%
Barometer: 980 hPa
Summary: Rain Drizzle
Clouds: Overcast
Visibility: 2 miles , 4 km
Cloud details: Overcast 91 m
2017/11/22 19:20 EGPH 221920Z 04004KT 4000 RADZ OVC003 05/05 Q0980
EGQK - RAF Kinloss, United Kingdom
Distance from station: NE 90mi, 144km
Updated: 22/11/2017 18:50
Overcast
Overcast
 Wind from SW
Wind: SW 5 mph , 7 km/h
Temperature: 4°C
Wind Chill: 2°C
Dew Point: 2°C
Humidity: 87%
Barometer: 981 hPa
Clouds: Overcast
Visibility: 6 miles , 10 km
Cloud details: Overcast 1829 m
2017/11/22 18:50 EGQK 221850Z AUTO 22004KT 9999 OVC060/// 04/02 Q0981
 
EGEC - Campbeltown, United Kingdom
Distance from station: S 90mi, 145km
Updated: 22/11/2017 17:20
NOT Current
Partly cloudy
Partly cloudy
 Wind from N
Wind: N 3 mph , 6 km/h
Temperature: 6°C
Dew Point: 4°C
Humidity: 87%
Barometer: 981 hPa
Clouds: Partly cloudy
Visibility: 6 miles , 10 km
Cloud details: Partly cloudy 762 m
Partly cloudy 1463 m
2017/11/22 17:20 EGEC 221720Z 01003KT 9999 SCT025 SCT048 06/04 Q0981
EGQA - Tain Range, United Kingdom
Distance from station: NNE 91mi, 146km
Updated: 22/11/2017 14:50
NOT Current
Mostly cloudy
Mostly cloudy
 Wind from calm
Wind: Calm
Clouds: Mostly cloudy
Visibility: 6 miles , 10 km
Cloud details: Few Clouds 914 m
Mostly cloudy 3048 m
2017/11/22 14:50 EGQA 221450Z 00000KT 9999 FEW030 BKN100 06/// Q0983 BLU
EGQL - RAF Leuchars, United Kingdom
Distance from station: ESE 93mi, 149km
Updated: 22/11/2017 18:50
Light rain, Overcast
Light rain, Overcast
 Wind from N
Wind: N 6 mph , 9 km/h
Temperature: 5°C
Wind Chill: 3°C
Dew Point: 5°C
Humidity: 100%
Barometer: 980 hPa
Summary: Light rain
Clouds: Overcast
Visibility: 6 miles , 10 km
Cloud details: Mostly cloudy 305 m
Overcast 549 m
2017/11/22 18:50 EGQL 221850Z 01005KT 9999 -RA BKN010 OVC018 05/05 Q0980 GRN
 
EGPL - Benbecula, United Kingdom
Distance from station: WNW 96mi, 154km
Updated: 22/11/2017 19:20
Clear
Clear
 Wind from NNE
Wind: NNE 5 mph , 7 km/h
Temperature: 0°C
Wind Chill: -3°C
Dew Point: -1°C
Humidity: 93%
Barometer: 980 hPa
Clouds: Clear
Visibility: 6 miles , 10 km
2017/11/22 19:20 EGPL 221920Z AUTO 02004KT 9999 NCD 00/M01 Q0980
EGQS - RAF Lossiemouth, United Kingdom
Distance from station: NE 99mi, 160km
Updated: 22/11/2017 18:50
Mostly cloudy
Mostly cloudy
 Wind from WSW
Wind: WSW 5 mph , 7 km/h
Temperature: 4°C
Wind Chill: 2°C
Dew Point: 2°C
Humidity: 87%
Barometer: 981 hPa
Clouds: Mostly cloudy
Visibility: 6 miles , 10 km
Cloud details: Few Clouds 762 m
Mostly cloudy 1524 m
2017/11/22 18:50 EGQS 221850Z 25004KT 9999 FEW025 BKN050 04/02 Q0981 BLU NOSIG
EGPO - Stornoway, United Kingdom
Distance from station: NNW 111mi, 179km
Updated: 22/11/2017 19:20
Nearby showers, Partly cloudy
Nearby showers, Partly cloudy
 Wind from SW
Wind: SW 3 mph , 6 km/h
Temperature: 3°C
Dew Point: 0°C
Humidity: 81%
Barometer: 981 hPa
Summary: Nearby Showers
Clouds: Partly cloudy
Visibility: 6 miles , 10 km
Cloud details: Few Clouds 488 m
Partly cloudy 671 m
2017/11/22 19:20 EGPO 221920Z 23003KT 9999 VCSH FEW016 SCT022CB 03/00 Q0981
 
EGPD - Aberdeen/Dyce, United Kingdom
Distance from station: ENE 118mi, 190km
Updated: 22/11/2017 19:20
Light rain, Overcast
Light rain, Overcast
 Wind from NW
Wind: NW 7 mph , 11 km/h
Temperature: 4°C
Wind Chill: 1°C
Dew Point: 2°C
Humidity: 87%
Barometer: 980 hPa
Summary: Light rain
Clouds: Overcast
Visibility: 6 miles , 10 km
Cloud details: Partly cloudy 518 m
Overcast 1402 m
2017/11/22 19:20 EGPD 221920Z AUTO 31006KT 9999 -RA SCT017 OVC046 04/02 Q0980 NOSIG
EGAE - Eglinton/Londond, United Kingdom
Distance from station: SSW 138mi, 222km
Updated: 22/11/2017 19:20
Partly cloudy
Partly cloudy
 Wind from SSW
Wind: SSW 5 mph , 7 km/h
Temperature: 5°C
Wind Chill: 3°C
Dew Point: 3°C
Humidity: 87%
Barometer: 981 hPa
Clouds: Partly cloudy
Visibility: 6 miles , 10 km
Cloud details: Few Clouds 549 m
Partly cloudy 1189 m
2017/11/22 19:20 EGAE 221920Z 20004KT 160V230 9999 FEW018 SCT039 05/03 Q0981
EGPC - Wick, United Kingdom
Distance from station: NNE 144mi, 232km
Updated: 22/11/2017 19:20
Light rain, Mostly cloudy
Light rain, Mostly cloudy
 Wind from W
Wind: W 9 mph , 15 km/h
Temperature: 3°C
Wind Chill: -1°C
Dew Point: 2°C
Humidity: 93%
Barometer: 980 hPa
Summary: Light rain
Clouds: Mostly cloudy
Visibility: 6 miles , 10 km
Cloud details: Few Clouds 213 m
Mostly cloudy 610 m
2017/11/22 19:20 EGPC 221920Z 28008KT 9999 -RA FEW007 BKN020 03/02 Q0980

Metar display script from Saratoga-Weather.org